createdAt,value
2017-08-07T00:00:38.752Z,9.40
2017-08-07T00:03:06.481Z,8.80
2017-08-07T00:05:34.207Z,9.37
2017-08-07T00:08:01.924Z,9.87
2017-08-07T00:10:29.645Z,9.90
2017-08-07T00:12:57.439Z,9.13
2017-08-07T00:15:25.943Z,9.80
2017-08-07T00:17:53.660Z,10.63
2017-08-07T00:20:21.440Z,9.73
2017-08-07T00:22:49.244Z,10.30
2017-08-07T00:25:16.974Z,9.13
2017-08-07T00:27:44.693Z,10.77
2017-08-07T00:30:12.476Z,9.77
2017-08-07T00:32:40.202Z,9.73
2017-08-07T00:35:08.011Z,10.50
2017-08-07T00:37:35.745Z,9.73
2017-08-07T00:40:03.464Z,9.13
2017-08-07T00:42:31.191Z,10.20
2017-08-07T00:44:58.935Z,8.40
2017-08-07T00:47:26.709Z,9.40
2017-08-07T00:49:54.492Z,10.00
2017-08-07T00:52:22.311Z,10.37
2017-08-07T00:54:50.852Z,9.37
2017-08-07T00:57:18.632Z,9.93
2017-08-07T00:59:46.378Z,9.80
2017-08-07T01:02:14.177Z,11.23
2017-08-07T01:04:41.896Z,10.97
2017-08-07T01:07:09.630Z,9.00
2017-08-07T01:09:37.419Z,11.17
2017-08-07T01:12:05.159Z,10.50
2017-08-07T01:14:32.892Z,11.07
2017-08-07T01:17:00.608Z,11.00
2017-08-07T01:19:29.212Z,12.13
2017-08-07T01:21:57.003Z,10.40
2017-08-07T01:24:24.717Z,10.97
2017-08-07T01:26:52.488Z,11.00
2017-08-07T01:29:20.233Z,11.30
2017-08-07T01:31:47.945Z,10.83
2017-08-07T01:34:15.665Z,10.00
2017-08-07T01:36:43.478Z,11.03
2017-08-07T01:39:11.250Z,9.80
2017-08-07T01:41:38.973Z,12.17
2017-08-07T01:44:06.700Z,10.70
2017-08-07T01:46:34.488Z,10.13
2017-08-07T01:49:02.221Z,11.40
2017-08-07T01:51:30.025Z,10.10
2017-08-07T01:53:57.800Z,10.87
2017-08-07T01:56:25.525Z,11.00
2017-08-07T01:58:53.252Z,11.40
2017-08-07T02:01:21.802Z,11.37
2017-08-07T02:03:49.602Z,11.00
2017-08-07T02:06:17.389Z,11.30
2017-08-07T02:08:45.125Z,11.70
2017-08-07T02:11:12.852Z,11.00
2017-08-07T02:13:40.644Z,12.13
2017-08-07T02:16:08.421Z,12.20
2017-08-07T02:18:36.201Z,12.60
2017-08-07T02:21:03.919Z,13.50
2017-08-07T02:23:31.700Z,11.67
2017-08-07T02:25:59.419Z,12.20
2017-08-07T02:28:27.165Z,12.30
2017-08-07T02:30:54.938Z,13.70
2017-08-07T02:33:22.744Z,12.20
2017-08-07T02:35:50.485Z,13.10
2017-08-07T02:38:18.213Z,11.90
2017-08-07T02:40:46.014Z,11.60
2017-08-07T02:43:13.804Z,11.73
2017-08-07T02:45:41.534Z,12.20
2017-08-07T02:48:09.345Z,11.63
2017-08-07T02:50:37.096Z,12.37
2017-08-07T02:53:04.906Z,12.27
2017-08-07T02:55:32.703Z,12.30
2017-08-07T02:58:00.436Z,12.37
2017-08-07T03:00:28.220Z,10.73
2017-08-07T03:02:56.013Z,11.70
2017-08-07T03:05:23.766Z,11.80
2017-08-07T03:07:51.497Z,12.30
2017-08-07T03:10:19.233Z,12.17
2017-08-07T03:12:46.972Z,11.80
2017-08-07T03:15:14.772Z,12.67
2017-08-07T03:17:42.491Z,11.40
2017-08-07T03:20:10.242Z,12.17
2017-08-07T03:22:38.028Z,12.67
2017-08-07T03:25:05.766Z,11.97
2017-08-07T03:27:33.583Z,12.03
2017-08-07T03:30:01.306Z,12.60
2017-08-07T03:32:29.049Z,11.80
2017-08-07T03:34:56.844Z,11.90
2017-08-07T03:37:24.636Z,11.20
2017-08-07T03:39:52.444Z,11.00
2017-08-07T03:42:20.197Z,10.10
2017-08-07T03:44:47.921Z,9.70
2017-08-07T03:47:15.653Z,9.67
2017-08-07T03:49:43.389Z,9.63
2017-08-07T03:52:11.197Z,10.03
2017-08-07T03:54:38.921Z,9.47
2017-08-07T03:57:07.467Z,8.93
2017-08-07T03:59:35.271Z,7.87
2017-08-07T04:02:03.015Z,9.33
2017-08-07T04:04:30.758Z,8.63
2017-08-07T04:06:58.563Z,7.97
2017-08-07T04:09:26.345Z,7.97
2017-08-07T04:11:54.156Z,8.00
2017-08-07T04:14:21.959Z,8.37
2017-08-07T04:16:50.531Z,8.60
2017-08-07T04:19:18.274Z,8.53
2017-08-07T04:21:46.006Z,8.70
2017-08-07T04:24:13.742Z,7.67
2017-08-07T04:26:41.510Z,7.67
2017-08-07T04:29:09.309Z,7.87
2017-08-07T04:31:37.076Z,7.17
2017-08-07T04:34:04.807Z,8.00
2017-08-07T04:36:32.631Z,7.23
2017-08-07T04:39:00.544Z,7.30
2017-08-07T04:41:29.103Z,7.60
2017-08-07T04:43:56.823Z,6.40
2017-08-07T04:46:24.586Z,8.10
2017-08-07T04:48:52.311Z,6.70
2017-08-07T04:51:20.054Z,6.00
2017-08-07T04:53:47.825Z,6.97
2017-08-07T04:56:15.622Z,6.30
2017-08-07T04:58:43.348Z,6.27
2017-08-07T05:01:11.118Z,6.17
2017-08-07T05:03:38.853Z,6.27
2017-08-07T05:06:06.569Z,6.80
2017-08-07T05:08:34.301Z,6.67
2017-08-07T05:11:02.045Z,5.67
2017-08-07T05:13:29.825Z,5.17
2017-08-07T05:15:57.643Z,5.73
2017-08-07T05:18:25.388Z,4.60
2017-08-07T05:20:53.875Z,4.63
2017-08-07T05:23:21.589Z,4.93
2017-08-07T05:25:49.368Z,4.60
2017-08-07T05:28:17.128Z,4.30
2017-08-07T05:30:44.865Z,4.30
2017-08-07T05:33:12.667Z,3.80
2017-08-07T05:35:40.508Z,3.90
2017-08-07T05:38:08.234Z,3.63
2017-08-07T05:40:36.511Z,4.20
2017-08-07T05:43:05.622Z,3.43
2017-08-07T05:45:33.423Z,3.33
2017-08-07T05:48:01.144Z,3.10
2017-08-07T05:50:29.330Z,3.17
2017-08-07T05:52:57.159Z,3.03
2017-08-07T05:55:24.936Z,3.30
2017-08-07T05:57:53.519Z,2.70
2017-08-07T06:00:21.329Z,2.50
2017-08-07T06:02:49.115Z,3.00
2017-08-07T06:05:16.887Z,2.40
2017-08-07T06:07:44.643Z,2.03
2017-08-07T06:10:12.375Z,2.70
2017-08-07T06:12:40.100Z,2.17
2017-08-07T06:15:07.904Z,2.13
2017-08-07T06:17:35.620Z,2.40
2017-08-07T06:20:03.394Z,2.80
2017-08-07T06:22:31.150Z,2.33
2017-08-07T06:24:58.931Z,2.17
2017-08-07T06:27:26.741Z,2.33
2017-08-07T06:29:54.563Z,2.13
2017-08-07T06:32:23.076Z,2.57
2017-08-07T06:34:50.879Z,2.47
2017-08-07T06:37:18.668Z,2.30
2017-08-07T06:39:46.408Z,2.40
2017-08-07T06:42:14.829Z,1.87
2017-08-07T06:44:42.612Z,1.90
2017-08-07T06:47:10.340Z,1.47
2017-08-07T06:49:38.117Z,2.00
2017-08-07T06:52:05.909Z,1.97
2017-08-07T06:54:33.640Z,1.50
2017-08-07T06:57:01.421Z,1.87
2017-08-07T06:59:30.178Z,1.80
2017-08-07T07:01:57.909Z,1.57
2017-08-07T07:04:25.687Z,1.73
2017-08-07T07:06:53.506Z,1.93
2017-08-07T07:09:21.308Z,1.77
2017-08-07T07:11:49.783Z,1.77
2017-08-07T07:14:17.553Z,2.43
2017-08-07T07:16:45.441Z,2.10
2017-08-07T07:19:13.246Z,1.50
2017-08-07T07:21:41.016Z,2.07
2017-08-07T07:24:08.809Z,1.90
2017-08-07T07:26:36.603Z,1.87
2017-08-07T07:29:04.384Z,2.40
2017-08-07T07:31:32.141Z,2.13
2017-08-07T07:33:59.934Z,2.23
2017-08-07T07:36:27.717Z,1.97
2017-08-07T07:38:55.508Z,1.80
2017-08-07T07:41:23.242Z,1.70
2017-08-07T07:43:51.029Z,3.93
2017-08-07T07:46:18.833Z,2.80
2017-08-07T07:48:46.575Z,1.77
2017-08-07T07:51:15.272Z,1.93
2017-08-07T07:53:43.076Z,2.20
2017-08-07T07:56:10.801Z,1.97
2017-08-07T07:58:38.575Z,2.30
2017-08-07T08:01:06.377Z,2.57
2017-08-07T08:03:34.096Z,2.57
2017-08-07T08:06:01.868Z,2.87
2017-08-07T08:08:29.600Z,2.00
2017-08-07T08:10:57.321Z,2.20
2017-08-07T08:13:25.830Z,2.00
2017-08-07T08:15:53.581Z,2.10
2017-08-07T08:18:21.336Z,2.30
2017-08-07T08:20:49.389Z,1.83
2017-08-07T08:23:17.162Z,2.00
2017-08-07T08:25:44.953Z,2.50
2017-08-07T08:28:12.766Z,2.40
2017-08-07T08:30:40.555Z,2.57
2017-08-07T08:33:08.346Z,2.40
2017-08-07T08:35:36.132Z,2.47
2017-08-07T08:38:03.920Z,2.20
2017-08-07T08:40:31.693Z,2.50
2017-08-07T08:42:59.512Z,2.97
2017-08-07T08:45:28.076Z,2.03
2017-08-07T08:47:55.848Z,2.70
2017-08-07T08:50:23.590Z,2.43
2017-08-07T08:52:51.362Z,3.07
2017-08-07T08:55:19.111Z,2.17
2017-08-07T08:57:46.864Z,1.97
2017-08-07T09:00:14.594Z,2.87
2017-08-07T09:02:42.384Z,1.87
2017-08-07T09:05:10.113Z,2.80
2017-08-07T09:07:37.841Z,2.23
2017-08-07T09:10:05.640Z,2.30
2017-08-07T09:12:33.428Z,2.63
2017-08-07T09:15:01.208Z,3.43
2017-08-07T09:17:28.959Z,2.27
2017-08-07T09:19:56.679Z,2.50
2017-08-07T09:22:24.456Z,2.03
2017-08-07T09:24:52.264Z,2.27
2017-08-07T09:27:20.062Z,2.40
2017-08-07T09:29:47.872Z,2.30
2017-08-07T09:32:15.668Z,2.40
2017-08-07T09:34:43.396Z,2.63
2017-08-07T09:37:11.182Z,2.50
2017-08-07T09:39:38.909Z,1.97
2017-08-07T09:42:06.678Z,3.13
2017-08-07T09:44:34.452Z,2.80
2017-08-07T09:47:02.233Z,2.53
2017-08-07T09:49:29.948Z,3.00
2017-08-07T09:51:57.665Z,2.03
2017-08-07T09:54:25.396Z,3.60
2017-08-07T09:56:53.173Z,2.40
2017-08-07T09:59:20.898Z,2.87
2017-08-07T10:01:49.434Z,3.10
2017-08-07T10:04:22.332Z,2.63
2017-08-07T10:06:51.016Z,2.60
2017-08-07T10:09:18.842Z,3.17
2017-08-07T10:11:46.585Z,3.70
2017-08-07T10:14:14.349Z,3.20
2017-08-07T10:16:42.172Z,3.80
2017-08-07T10:19:09.913Z,3.40
2017-08-07T10:21:37.797Z,4.30
2017-08-07T10:24:05.597Z,3.73
2017-08-07T10:26:33.342Z,4.00
2017-08-07T10:29:01.095Z,3.83
2017-08-07T10:31:28.837Z,4.07
2017-08-07T10:33:57.365Z,3.67
2017-08-07T10:36:25.283Z,3.70
2017-08-07T10:38:53.923Z,4.50
2017-08-07T10:41:21.749Z,3.90
2017-08-07T10:43:51.038Z,4.00
2017-08-07T10:46:19.681Z,4.17
2017-08-07T10:48:48.318Z,3.67
2017-08-07T10:51:16.039Z,3.83
2017-08-07T10:53:43.832Z,4.10
2017-08-07T10:56:11.634Z,4.10
2017-08-07T10:58:39.373Z,4.07
2017-08-07T11:01:07.149Z,3.90
2017-08-07T11:03:34.980Z,3.07
2017-08-07T11:06:02.695Z,4.00
2017-08-07T11:08:30.444Z,3.87
2017-08-07T11:10:58.197Z,4.10
2017-08-07T11:13:26.037Z,3.07
2017-08-07T11:15:53.829Z,4.27
2017-08-07T11:18:21.566Z,3.33
2017-08-07T11:20:49.372Z,4.30
2017-08-07T11:23:21.011Z,3.57
2017-08-07T11:25:48.851Z,3.90
2017-08-07T11:28:16.632Z,3.70
2017-08-07T11:30:44.452Z,3.43
2017-08-07T11:33:13.037Z,4.17
2017-08-07T11:35:41.491Z,3.20
2017-08-07T11:38:10.217Z,3.50
2017-08-07T11:40:38.829Z,3.20
2017-08-07T11:43:06.608Z,4.20
2017-08-07T11:45:34.401Z,3.80
2017-08-07T11:48:02.186Z,4.80
2017-08-07T11:50:30.003Z,4.30
2017-08-07T11:52:57.728Z,4.87
2017-08-07T11:55:25.526Z,4.70
2017-08-07T11:57:53.263Z,4.30
2017-08-07T12:00:21.036Z,5.00
2017-08-07T12:02:49.554Z,4.77
2017-08-07T12:05:17.368Z,4.80
2017-08-07T12:07:45.074Z,4.97
2017-08-07T12:10:12.801Z,4.80
2017-08-07T12:12:40.656Z,5.00
2017-08-07T12:15:08.457Z,5.40
2017-08-07T12:17:36.240Z,5.17
2017-08-07T12:20:03.975Z,4.33
2017-08-07T12:22:31.771Z,4.50
2017-08-07T12:24:59.587Z,4.30
2017-08-07T12:27:27.299Z,4.80
2017-08-07T12:29:55.087Z,4.80
2017-08-07T12:32:22.921Z,4.33
2017-08-07T12:34:51.419Z,5.23
2017-08-07T12:37:19.162Z,4.33
2017-08-07T12:39:46.901Z,4.60
2017-08-07T12:42:14.695Z,4.53
2017-08-07T12:44:42.507Z,5.20
2017-08-07T12:47:10.342Z,4.60
2017-08-07T12:49:38.076Z,5.53
2017-08-07T12:52:05.872Z,5.87
2017-08-07T12:54:33.597Z,6.57
2017-08-07T12:57:01.421Z,6.00
2017-08-07T12:59:29.195Z,5.97
2017-08-07T13:01:57.016Z,5.50
2017-08-07T13:04:24.909Z,5.27
2017-08-07T13:06:52.727Z,7.17
2017-08-07T13:09:21.308Z,6.10
2017-08-07T13:11:49.029Z,5.10
2017-08-07T13:14:16.776Z,6.40
2017-08-07T13:16:44.559Z,5.10
2017-08-07T13:19:12.346Z,5.93
2017-08-07T13:21:40.864Z,6.67
2017-08-07T13:24:08.655Z,4.77
2017-08-07T13:26:36.450Z,4.70
2017-08-07T13:29:04.240Z,4.30
2017-08-07T13:31:32.604Z,4.13
2017-08-07T13:34:00.326Z,4.20
2017-08-07T13:36:28.110Z,3.73
2017-08-07T13:38:55.914Z,3.50
2017-08-07T13:41:23.642Z,3.83
2017-08-07T13:43:51.413Z,3.43
2017-08-07T13:46:19.135Z,4.03
2017-08-07T13:48:46.908Z,3.90
2017-08-07T13:51:15.236Z,3.30
2017-08-07T13:53:43.009Z,3.60
2017-08-07T13:56:11.077Z,3.40
2017-08-07T13:58:38.823Z,4.30
2017-08-07T14:01:06.600Z,3.40
2017-08-07T14:03:34.332Z,3.70
2017-08-07T14:06:02.135Z,4.10
2017-08-07T14:08:29.928Z,3.80
2017-08-07T14:10:57.631Z,3.97
2017-08-07T14:13:25.594Z,3.37
2017-08-07T14:15:53.378Z,3.37
2017-08-07T14:18:21.096Z,3.83
2017-08-07T14:20:48.899Z,3.33
2017-08-07T14:23:16.610Z,2.70
2017-08-07T14:25:44.407Z,3.50
2017-08-07T14:28:12.206Z,3.33
2017-08-07T14:30:40.805Z,3.13
2017-08-07T14:33:08.527Z,3.33
2017-08-07T14:35:36.313Z,3.37
2017-08-07T14:38:04.077Z,3.40
2017-08-07T14:40:31.789Z,3.30
2017-08-07T14:42:59.584Z,4.13
2017-08-07T14:45:27.394Z,3.47
2017-08-07T14:47:55.195Z,3.20
2017-08-07T14:50:22.928Z,3.50
2017-08-07T14:52:50.718Z,3.10
2017-08-07T14:55:18.533Z,3.67
2017-08-07T14:57:46.979Z,3.47
2017-08-07T15:00:14.706Z,3.90
2017-08-07T15:02:42.560Z,3.90
2017-08-07T15:05:11.056Z,4.00
2017-08-07T15:07:38.847Z,3.37
2017-08-07T15:10:07.527Z,4.07
2017-08-07T15:12:35.327Z,3.73
2017-08-07T15:15:03.104Z,3.47
2017-08-07T15:17:31.753Z,3.27
2017-08-07T15:19:59.593Z,3.50
2017-08-07T15:22:27.389Z,3.77
2017-08-07T15:24:56.256Z,3.70
2017-08-07T15:27:24.406Z,3.03
2017-08-07T15:29:52.153Z,4.27
2017-08-07T15:32:20.886Z,2.97
2017-08-07T15:34:48.911Z,3.17
2017-08-07T15:37:18.337Z,3.50
2017-08-07T15:39:47.234Z,3.20
2017-08-07T15:42:15.010Z,2.83
2017-08-07T15:44:43.560Z,3.30
2017-08-07T15:47:11.276Z,2.70
2017-08-07T15:49:39.034Z,3.40
2017-08-07T15:52:07.505Z,3.10
2017-08-07T15:54:35.274Z,3.00
2017-08-07T15:57:03.038Z,3.20
2017-08-07T15:59:30.836Z,2.40
2017-08-07T16:01:58.558Z,3.67
2017-08-07T16:04:26.343Z,3.80
2017-08-07T16:06:54.130Z,3.00
2017-08-07T16:09:21.844Z,2.87
2017-08-07T16:11:49.644Z,3.03
2017-08-07T16:14:17.360Z,2.90
2017-08-07T16:16:45.102Z,3.13
2017-08-07T16:19:14.327Z,2.83
2017-08-07T16:21:42.269Z,2.40
2017-08-07T16:24:10.109Z,2.70
2017-08-07T16:26:37.844Z,2.90
2017-08-07T16:29:05.589Z,2.70
2017-08-07T16:31:34.254Z,3.07
2017-08-07T16:34:02.044Z,2.30
2017-08-07T16:36:29.830Z,3.00
2017-08-07T16:38:57.618Z,2.60
2017-08-07T16:41:25.354Z,3.03
2017-08-07T16:43:53.094Z,2.53
2017-08-07T16:46:20.836Z,2.90
2017-08-07T16:48:48.820Z,2.73
2017-08-07T16:51:16.685Z,4.07
2017-08-07T16:53:44.471Z,2.90
2017-08-07T16:56:12.192Z,3.00
2017-08-07T16:58:39.963Z,2.60
2017-08-07T17:01:07.677Z,2.53
2017-08-07T17:03:35.396Z,3.00
2017-08-07T17:06:03.202Z,2.33
2017-08-07T17:08:30.921Z,2.83
2017-08-07T17:10:58.697Z,2.50
2017-08-07T17:13:26.487Z,2.70
2017-08-07T17:15:54.985Z,2.90
2017-08-07T17:18:22.799Z,2.60
2017-08-07T17:20:50.533Z,3.07
2017-08-07T17:23:18.262Z,2.50
2017-08-07T17:25:46.080Z,2.93
2017-08-07T17:28:15.100Z,2.50
2017-08-07T17:30:42.956Z,2.53
2017-08-07T17:33:14.062Z,2.57
2017-08-07T17:35:41.881Z,3.00
2017-08-07T17:38:11.486Z,2.50
2017-08-07T17:40:39.322Z,2.30
2017-08-07T17:43:07.120Z,2.37
2017-08-07T17:45:34.989Z,2.90
2017-08-07T17:48:02.911Z,2.63
2017-08-07T17:50:31.772Z,2.30
2017-08-07T17:53:02.424Z,2.43
2017-08-07T17:55:35.906Z,2.13
2017-08-07T17:58:03.784Z,2.73
2017-08-07T18:00:31.518Z,2.17
2017-08-07T18:03:00.267Z,2.23
2017-08-07T18:05:32.451Z,2.30
2017-08-07T18:08:00.267Z,2.50
2017-08-07T18:10:28.151Z,2.73
2017-08-07T18:12:55.888Z,2.70
2017-08-07T18:15:23.639Z,2.50
2017-08-07T18:17:51.414Z,2.13
2017-08-07T18:20:19.149Z,2.97
2017-08-07T18:22:46.976Z,2.37
2017-08-07T18:25:14.722Z,2.60
2017-08-07T18:27:42.503Z,2.27
2017-08-07T18:30:10.226Z,2.10
2017-08-07T18:32:38.047Z,2.07
2017-08-07T18:35:05.889Z,2.20
2017-08-07T18:37:33.672Z,2.77
2017-08-07T18:40:02.914Z,2.30
2017-08-07T18:42:30.676Z,2.37
2017-08-07T18:45:05.772Z,1.93
2017-08-07T18:47:35.103Z,2.40
2017-08-07T18:50:04.533Z,2.20
2017-08-07T18:55:38.707Z,1.90
2017-08-07T18:58:10.334Z,2.13
2017-08-07T19:00:38.168Z,2.33
2017-08-07T19:03:05.910Z,2.40
2017-08-07T19:05:33.733Z,2.23
2017-08-07T19:08:02.418Z,3.07
2017-08-07T19:10:30.177Z,2.40
2017-08-07T19:12:58.710Z,2.27
2017-08-07T19:15:26.562Z,2.80
2017-08-07T19:17:54.377Z,3.37
2017-08-07T19:20:25.933Z,2.90
2017-08-07T19:22:53.669Z,2.80
2017-08-07T19:25:21.491Z,2.73
2017-08-07T19:27:49.338Z,2.57
2017-08-07T19:30:17.101Z,2.97
2017-08-07T19:32:44.859Z,2.97
2017-08-07T19:35:12.618Z,2.43
2017-08-07T19:37:40.489Z,2.57
2017-08-07T19:40:08.258Z,2.47
2017-08-07T19:42:36.787Z,3.20
2017-08-07T19:45:04.670Z,2.40
2017-08-07T19:47:32.467Z,2.73
2017-08-07T19:50:01.257Z,2.63
2017-08-07T19:52:30.526Z,2.70
2017-08-07T19:54:59.244Z,2.50
2017-08-07T19:57:27.987Z,2.20
2017-08-07T20:00:00.103Z,2.53
2017-08-07T20:02:27.911Z,2.90
2017-08-07T20:04:55.727Z,2.40
2017-08-07T20:07:23.498Z,2.30
2017-08-07T20:09:51.279Z,2.70
2017-08-07T20:12:19.053Z,2.87
2017-08-07T20:14:46.878Z,2.40
2017-08-07T20:17:14.657Z,2.90
2017-08-07T20:19:42.458Z,2.57
2017-08-07T20:22:10.208Z,2.70
2017-08-07T20:24:38.036Z,2.43
2017-08-07T20:27:05.830Z,3.60
2017-08-07T20:29:33.646Z,2.60
2017-08-07T20:32:01.472Z,2.50
2017-08-07T20:34:29.311Z,2.90
2017-08-07T20:36:57.118Z,2.97
2017-08-07T20:39:24.934Z,2.90
2017-08-07T20:41:52.761Z,2.20
2017-08-07T20:44:23.717Z,2.60
2017-08-07T20:46:52.413Z,3.07
2017-08-07T20:49:21.024Z,2.20
2017-08-07T20:51:49.149Z,2.90
2017-08-07T20:54:19.109Z,3.00
2017-08-07T20:56:46.958Z,2.80
2017-08-07T20:59:14.844Z,3.10
2017-08-07T21:01:42.635Z,2.47
2017-08-07T21:04:10.476Z,3.00
2017-08-07T21:06:43.385Z,2.50
2017-08-07T21:09:36.502Z,3.30
2017-08-07T21:12:05.318Z,2.60
2017-08-07T21:14:33.254Z,2.87
2017-08-07T21:17:01.137Z,3.30
2017-08-07T21:19:28.935Z,2.80
2017-08-07T21:21:59.682Z,3.00
2017-08-07T21:24:33.457Z,2.83
2017-08-07T21:27:02.104Z,2.90
2017-08-07T21:29:29.923Z,2.67
2017-08-07T21:31:57.731Z,3.20
2017-08-07T21:34:25.564Z,2.57
2017-08-07T21:36:53.432Z,3.17
2017-08-07T21:39:22.019Z,2.97
2017-08-07T21:41:49.823Z,3.50
2017-08-07T21:44:17.621Z,3.00
2017-08-07T21:46:45.450Z,3.13
2017-08-07T21:49:14.201Z,3.43
2017-08-07T21:51:42.043Z,3.53
2017-08-07T21:54:09.806Z,3.27
2017-08-07T21:56:37.614Z,3.30
2017-08-07T21:59:05.454Z,3.60
2017-08-07T22:01:36.528Z,3.60
2017-08-07T22:04:04.761Z,3.80
2017-08-07T22:06:34.712Z,3.60
2017-08-07T22:09:05.892Z,3.90
2017-08-07T22:11:34.926Z,3.13
2017-08-07T22:14:17.013Z,3.83
2017-08-07T22:16:45.770Z,4.07
2017-08-07T22:19:14.662Z,3.97
2017-08-07T22:21:45.936Z,3.67
2017-08-07T22:27:04.411Z,4.10
2017-08-07T22:29:32.182Z,4.50
2017-08-07T22:31:59.938Z,4.33
2017-08-07T22:34:28.407Z,4.07
2017-08-07T22:36:56.169Z,4.10
2017-08-07T22:39:24.696Z,4.20
2017-08-07T22:41:52.516Z,4.43
2017-08-07T22:44:20.370Z,4.47
2017-08-07T22:46:48.204Z,4.30
2017-08-07T22:49:15.960Z,4.00
2017-08-07T22:51:43.734Z,5.30
2017-08-07T22:54:11.571Z,4.50
2017-08-07T22:56:39.392Z,4.33
2017-08-07T22:59:07.176Z,4.23
2017-08-07T23:01:35.020Z,4.50
2017-08-07T23:04:02.793Z,4.57
2017-08-07T23:06:30.610Z,4.37
2017-08-07T23:08:58.420Z,4.23
2017-08-07T23:11:26.160Z,4.33
2017-08-07T23:13:53.990Z,4.20
2017-08-07T23:16:21.833Z,4.97
2017-08-07T23:18:49.657Z,4.77
2017-08-07T23:21:17.434Z,5.20
2017-08-07T23:23:45.250Z,4.53
2017-08-07T23:26:13.086Z,4.20
2017-08-07T23:28:40.856Z,4.30
2017-08-07T23:31:08.686Z,4.47
2017-08-07T23:33:36.437Z,4.43
2017-08-07T23:36:04.242Z,4.20
2017-08-07T23:38:31.989Z,4.50
2017-08-07T23:40:59.726Z,3.70
2017-08-07T23:43:27.485Z,4.17
2017-08-07T23:45:55.231Z,3.70
2017-08-07T23:48:22.995Z,3.80
2017-08-07T23:50:50.806Z,4.07
2017-08-07T23:53:19.502Z,3.87
2017-08-07T23:55:47.266Z,3.57
2017-08-07T23:58:15.037Z,3.70
